createdAt,value
2022-11-24T00:01:38.483Z,96674.13
2022-11-24T00:04:04.958Z,96682.63
2022-11-24T00:06:33.401Z,96689.78
2022-11-24T00:08:59.723Z,96690.53
2022-11-24T00:11:27.717Z,96699.81
2022-11-24T00:13:54.050Z,96699.53
2022-11-24T00:16:22.322Z,96702.94
2022-11-24T00:18:49.354Z,96701.59
2022-11-24T00:21:15.664Z,96706.63
2022-11-24T00:23:41.961Z,96699.97
2022-11-24T00:26:10.566Z,96719.31
2022-11-24T00:28:38.033Z,96721.69
2022-11-24T00:31:08.095Z,96711.59
2022-11-24T00:33:36.932Z,96718.44
2022-11-24T00:36:03.251Z,96711.78
2022-11-24T00:38:29.706Z,96723.16
2022-11-24T00:40:56.140Z,96723.69
2022-11-24T00:43:23.936Z,96721.50
2022-11-24T00:45:50.392Z,96724.66
2022-11-24T00:48:16.903Z,96733.13
2022-11-24T00:50:43.349Z,96729.91
2022-11-24T00:53:10.659Z,96729.63
2022-11-24T00:55:36.977Z,96740.47
2022-11-24T00:58:03.472Z,96731.16
2022-11-24T01:00:30.621Z,96742.28
2022-11-24T01:02:57.046Z,96738.53
2022-11-24T01:05:28.245Z,96742.50
2022-11-24T01:07:55.300Z,96744.84
2022-11-24T01:10:21.614Z,96751.44
2022-11-24T01:12:48.753Z,96749.28
2022-11-24T01:15:15.969Z,96752.47
2022-11-24T01:17:43.436Z,96750.28
2022-11-24T01:20:15.221Z,96761.41
2022-11-24T01:22:42.645Z,96755.53
2022-11-24T01:25:14.301Z,96770.91
2022-11-24T01:27:43.608Z,96760.78
2022-11-24T01:30:10.647Z,96764.75
2022-11-24T01:32:37.040Z,96773.19
2022-11-24T01:35:03.387Z,96772.88
2022-11-24T01:37:29.771Z,96784.78
2022-11-24T01:39:56.130Z,96782.41
2022-11-24T01:42:23.630Z,96788.16
2022-11-24T01:44:50.278Z,96779.13
2022-11-24T01:47:17.714Z,96786.28
2022-11-24T01:49:44.049Z,96787.56
2022-11-24T01:52:10.416Z,96788.88
2022-11-24T01:54:37.254Z,96779.28
2022-11-24T01:57:05.285Z,96791.22
2022-11-24T01:59:32.900Z,96782.69
2022-11-24T02:02:01.248Z,96788.50
2022-11-24T02:04:28.185Z,96781.56
2022-11-24T02:06:56.555Z,96793.25
2022-11-24T02:09:22.967Z,96788.44
2022-11-24T02:11:49.298Z,96788.69
2022-11-24T02:14:15.780Z,96802.16
2022-11-24T02:16:43.396Z,96805.06
2022-11-24T02:19:10.125Z,96794.69
2022-11-24T02:21:37.549Z,96798.41
2022-11-24T02:24:03.905Z,96804.19
2022-11-24T02:26:30.274Z,96805.50
2022-11-24T02:28:56.683Z,96803.88
2022-11-24T02:31:23.231Z,96814.97
2022-11-24T02:33:51.073Z,96810.97
2022-11-24T02:36:17.417Z,96830.53
2022-11-24T02:38:45.525Z,96832.63
2022-11-24T02:41:11.836Z,96832.06
2022-11-24T02:43:38.190Z,96828.88
2022-11-24T02:46:05.325Z,96829.06
2022-11-24T02:48:31.695Z,96830.13
2022-11-24T02:50:58.340Z,96833.03
2022-11-24T02:53:25.539Z,96834.84
2022-11-24T02:55:54.185Z,96840.97
2022-11-24T02:58:20.793Z,96847.31
2022-11-24T03:00:49.539Z,96848.34
2022-11-24T03:03:15.899Z,96845.13
2022-11-24T03:05:42.657Z,96842.72
2022-11-24T03:08:09.832Z,96842.97
2022-11-24T03:10:37.934Z,96853.25
2022-11-24T03:13:04.306Z,96851.88
2022-11-24T03:15:30.998Z,96852.38
2022-11-24T03:17:57.420Z,96843.84
2022-11-24T03:20:23.852Z,96844.34
2022-11-24T03:22:50.189Z,96841.13
2022-11-24T03:25:16.780Z,96846.44
2022-11-24T03:27:43.079Z,96841.63
2022-11-24T03:30:11.738Z,96855.88
2022-11-24T03:32:38.820Z,96848.19
2022-11-24T03:35:05.103Z,96859.03
2022-11-24T03:37:32.125Z,96844.44
2022-11-24T03:39:59.538Z,96852.63
2022-11-24T03:42:25.880Z,96864.47
2022-11-24T03:44:54.044Z,96855.97
2022-11-24T03:47:20.394Z,96858.06
2022-11-24T03:49:48.760Z,96861.19
2022-11-24T03:52:15.134Z,96872.03
2022-11-24T03:54:41.879Z,96868.81
2022-11-24T03:57:08.472Z,96876.19
2022-11-24T03:59:35.464Z,96868.47
2022-11-24T04:02:01.876Z,96877.22
2022-11-24T04:04:29.201Z,96887.00
2022-11-24T04:06:55.861Z,96889.66
2022-11-24T04:09:22.182Z,96882.53
2022-11-24T04:11:48.482Z,96887.00
2022-11-24T04:14:15.441Z,96891.50
2022-11-24T04:16:42.382Z,96894.13
2022-11-24T04:19:09.182Z,96900.47
2022-11-24T04:21:36.231Z,96899.91
2022-11-24T04:24:02.749Z,96896.69
2022-11-24T04:26:29.230Z,96913.63
2022-11-24T04:28:55.693Z,96906.13
2022-11-24T04:31:22.049Z,96902.94
2022-11-24T04:33:48.472Z,96898.69
2022-11-24T04:36:14.823Z,96900.75
2022-11-24T04:39:19.959Z,96899.97
2022-11-24T04:41:29.215Z,96903.88
2022-11-24T04:43:56.370Z,96905.72
2022-11-24T04:46:22.943Z,96913.13
2022-11-24T04:48:49.265Z,96924.72
2022-11-24T04:51:15.643Z,96923.38
2022-11-24T04:53:41.941Z,96932.31
2022-11-24T04:56:08.561Z,96932.31
2022-11-24T04:58:34.892Z,96939.69
2022-11-24T05:01:01.952Z,96940.75
2022-11-24T05:03:28.294Z,96952.16
2022-11-24T05:05:54.784Z,96947.06
2022-11-24T05:08:22.747Z,96943.88
2022-11-24T05:10:51.322Z,96944.31
2022-11-24T05:13:18.077Z,96951.22
2022-11-24T05:15:44.468Z,96947.19
2022-11-24T05:18:10.765Z,96954.31
2022-11-24T05:20:39.008Z,96959.84
2022-11-24T05:23:06.435Z,96950.56
2022-11-24T05:25:33.822Z,96974.59
2022-11-24T05:28:00.999Z,96972.97
2022-11-24T05:30:28.074Z,96972.19
2022-11-24T05:32:55.299Z,96977.69
2022-11-24T05:35:22.857Z,96981.41
2022-11-24T05:37:51.055Z,96973.69
2022-11-24T05:40:19.135Z,97001.16
2022-11-24T05:42:48.045Z,96985.28
2022-11-24T05:45:14.700Z,96981.06
2022-11-24T05:47:40.997Z,96978.41
2022-11-24T05:50:07.235Z,96978.41
2022-11-24T05:52:33.834Z,96982.31
2022-11-24T05:55:00.113Z,96991.06
2022-11-24T05:57:26.399Z,96995.53
2022-11-24T05:59:53.656Z,96991.28
2022-11-24T06:02:20.094Z,97001.88
2022-11-24T06:04:46.476Z,97009.81
2022-11-24T06:07:13.139Z,97010.84
2022-11-24T06:09:39.440Z,97016.34
2022-11-24T06:12:06.699Z,97020.03
2022-11-24T06:14:33.509Z,97023.72
2022-11-24T06:17:01.402Z,97017.63
2022-11-24T06:19:27.634Z,97013.16
2022-11-24T06:21:53.915Z,97025.56
2022-11-24T06:24:20.340Z,97016.81
2022-11-24T06:26:46.579Z,97011.75
2022-11-24T06:29:14.173Z,97018.31
2022-11-24T06:31:40.481Z,97022.59
2022-11-24T06:34:07.333Z,97024.66
2022-11-24T06:36:34.492Z,97026.47
2022-11-24T06:39:01.423Z,97023.84
2022-11-24T06:41:30.090Z,97032.00
2022-11-24T06:43:57.391Z,97042.56
2022-11-24T06:46:23.762Z,97038.34
2022-11-24T06:48:50.109Z,97042.00
2022-11-24T06:51:17.621Z,97046.28
2022-11-24T06:53:44.415Z,97048.91
2022-11-24T06:56:16.265Z,97059.34
2022-11-24T06:58:45.767Z,97065.84
2022-11-24T07:01:12.122Z,97069.56
2022-11-24T07:03:40.821Z,97081.69
2022-11-24T07:06:08.741Z,97076.78
2022-11-24T07:08:36.337Z,97082.66
2022-11-24T07:11:03.508Z,97092.72
2022-11-24T07:13:29.838Z,97103.00
2022-11-24T07:15:57.404Z,97103.72
2022-11-24T07:18:24.108Z,97111.06
2022-11-24T07:20:51.532Z,97110.38
2022-11-24T07:23:17.981Z,97117.72
2022-11-24T07:25:44.344Z,97119.19
2022-11-24T07:28:10.756Z,97115.28
2022-11-24T07:30:37.807Z,97116.75
2022-11-24T07:33:04.077Z,97124.28
2022-11-24T07:35:30.349Z,97118.56
2022-11-24T07:37:56.739Z,97115.47
2022-11-24T07:40:23.048Z,97117.16
2022-11-24T07:42:49.793Z,97122.84
2022-11-24T07:45:16.416Z,97129.56
2022-11-24T07:47:43.246Z,97127.53
2022-11-24T07:50:09.525Z,97132.94
2022-11-24T07:52:37.683Z,97142.78
2022-11-24T07:55:04.237Z,97138.34
2022-11-24T07:57:31.625Z,97146.38
2022-11-24T07:59:59.297Z,97150.16
2022-11-24T08:02:26.494Z,97147.00
2022-11-24T08:04:52.796Z,97144.91
2022-11-24T08:07:19.142Z,97142.78
2022-11-24T08:09:46.314Z,97154.56
2022-11-24T08:12:13.327Z,97153.00
2022-11-24T08:14:41.468Z,97154.91
2022-11-24T08:17:07.797Z,97166.91
2022-11-24T08:19:34.764Z,97164.31
2022-11-24T08:22:03.068Z,97159.28
2022-11-24T08:24:29.403Z,97161.69
2022-11-24T08:26:56.963Z,97163.63
2022-11-24T08:29:23.366Z,97162.31
2022-11-24T08:31:49.760Z,97164.97
2022-11-24T08:34:16.047Z,97170.03
2022-11-24T08:36:43.022Z,97161.78
2022-11-24T08:39:09.886Z,97163.97
2022-11-24T08:41:37.066Z,97165.56
2022-11-24T08:44:03.514Z,97175.47
2022-11-24T08:46:30.546Z,97163.50
2022-11-24T08:48:57.336Z,97166.72
2022-11-24T08:51:24.817Z,97176.03
2022-11-24T08:53:51.111Z,97174.75
2022-11-24T08:56:18.221Z,97171.03
2022-11-24T08:58:44.525Z,97179.56
2022-11-24T09:01:12.674Z,97187.28
2022-11-24T09:03:42.195Z,97176.16
2022-11-24T09:06:12.233Z,97180.16
2022-11-24T09:08:38.523Z,97185.78
2022-11-24T09:11:04.877Z,97193.03
2022-11-24T09:13:33.390Z,97194.13
2022-11-24T09:16:00.707Z,97195.75
2022-11-24T09:18:30.272Z,97197.34
2022-11-24T09:20:57.368Z,97199.72
2022-11-24T09:23:23.638Z,97208.03
2022-11-24T09:25:49.915Z,97206.16
2022-11-24T09:28:17.852Z,97209.13
2022-11-24T09:30:44.155Z,97207.84
2022-11-24T09:33:12.495Z,97214.50
2022-11-24T09:35:38.728Z,97221.44
2022-11-24T09:38:04.998Z,97225.44
2022-11-24T09:40:31.305Z,97226.81
2022-11-24T09:42:57.705Z,97204.88
2022-11-24T09:45:49.064Z,97225.50
2022-11-24T09:48:11.892Z,97220.97
2022-11-24T09:50:38.169Z,97219.13
2022-11-24T09:53:04.519Z,97226.88
2022-11-24T09:55:30.821Z,97231.13
2022-11-24T09:57:58.173Z,97228.47
2022-11-24T10:00:24.459Z,97234.34
2022-11-24T10:02:50.775Z,97238.66
2022-11-24T10:05:18.624Z,97239.69
2022-11-24T10:07:44.940Z,97237.03
2022-11-24T10:10:18.516Z,97238.66
2022-11-24T10:12:48.299Z,97234.91
2022-11-24T10:15:14.764Z,97237.56
2022-11-24T10:17:41.245Z,97239.72
2022-11-24T10:20:07.634Z,97242.13
2022-11-24T10:22:33.963Z,97239.50
2022-11-24T10:25:00.327Z,97248.31
2022-11-24T10:27:26.605Z,97241.13
2022-11-24T10:29:57.410Z,97244.59
2022-11-24T10:32:23.709Z,97249.94
2022-11-24T10:34:51.304Z,97247.00
2022-11-24T10:37:17.735Z,97250.44
2022-11-24T10:39:44.010Z,97254.75
2022-11-24T10:42:10.241Z,97239.31
2022-11-24T10:44:36.726Z,97243.81
2022-11-24T10:47:03.771Z,97245.41
2022-11-24T10:49:31.680Z,97245.41
2022-11-24T10:51:58.097Z,97254.78
2022-11-24T10:54:24.931Z,97241.19
2022-11-24T10:56:51.629Z,97251.34
2022-11-24T10:59:17.892Z,97245.00
2022-11-24T11:01:44.366Z,97249.03
2022-11-24T11:04:13.378Z,97246.59
2022-11-24T11:06:39.753Z,97242.63
2022-11-24T11:09:06.028Z,97244.78
2022-11-24T11:11:32.740Z,97248.50
2022-11-24T11:14:04.181Z,97256.56
2022-11-24T11:16:31.184Z,97255.00
2022-11-24T11:18:57.441Z,97256.94
2022-11-24T11:21:24.211Z,97262.00
2022-11-24T11:23:50.636Z,97264.75
2022-11-24T11:26:17.569Z,97265.53
2022-11-24T11:28:43.937Z,97272.97
2022-11-24T11:31:16.366Z,97269.59
2022-11-24T11:36:31.187Z,97289.63
2022-11-24T11:38:57.769Z,97284.31
2022-11-24T11:41:24.094Z,97275.47
2022-11-24T11:43:50.622Z,97279.44
2022-11-24T11:46:17.564Z,97281.09
2022-11-24T11:48:44.168Z,97282.97
2022-11-24T11:51:26.246Z,97283.84
2022-11-24T11:53:52.910Z,97282.56
2022-11-24T11:56:19.352Z,97285.25
2022-11-24T11:58:46.697Z,97289.81
2022-11-24T12:01:14.470Z,97288.94
2022-11-24T12:03:42.054Z,97281.19
2022-11-24T12:06:09.248Z,97288.38
2022-11-24T12:08:55.965Z,97288.66
2022-11-24T12:11:24.314Z,97293.19
2022-11-24T12:13:51.365Z,97300.13
2022-11-24T12:16:18.471Z,97298.53
2022-11-24T12:19:02.527Z,97277.59
2022-11-24T12:21:29.294Z,97295.31
2022-11-24T12:23:55.638Z,97301.69
2022-11-24T12:26:23.035Z,97304.38
2022-11-24T12:28:51.440Z,97301.97
2022-11-24T12:31:19.221Z,97301.19
2022-11-24T12:33:51.611Z,97308.38
2022-11-24T12:36:19.544Z,97300.38
2022-11-24T12:38:45.937Z,97303.84
2022-11-24T12:44:00.055Z,97305.69
2022-11-24T12:46:27.289Z,97304.88
2022-11-24T12:48:54.128Z,97306.97
2022-11-24T12:51:20.845Z,97310.72
2022-11-24T12:53:47.265Z,97310.72
2022-11-24T12:56:13.522Z,97313.38
2022-11-24T12:58:40.066Z,97320.56
2022-11-24T13:01:09.313Z,97322.69
2022-11-24T13:03:41.165Z,97322.69
2022-11-24T13:06:11.250Z,97324.31
2022-11-24T13:08:38.678Z,97326.97
2022-11-24T13:11:06.320Z,97334.50
2022-11-24T13:13:32.582Z,97337.16
2022-11-24T13:18:46.949Z,97344.31
2022-11-24T13:21:13.312Z,97346.75
2022-11-24T13:23:39.640Z,97350.78
2022-11-24T13:26:05.998Z,97351.06
2022-11-24T13:29:00.326Z,97354.56
2022-11-24T13:31:22.001Z,97370.00
2022-11-24T13:33:48.424Z,97370.00
2022-11-24T13:36:14.795Z,97377.22
2022-11-24T13:38:41.115Z,97372.13
2022-11-24T13:41:27.778Z,97357.63
2022-11-24T13:43:54.205Z,97377.47
2022-11-24T13:46:20.542Z,97377.47
2022-11-24T13:48:46.840Z,97375.34
2022-11-24T13:51:14.167Z,97380.69
2022-11-24T13:53:40.889Z,97383.34
2022-11-24T13:56:08.709Z,97385.22
2022-11-24T13:58:34.980Z,97390.81
2022-11-24T14:01:01.892Z,97390.81
2022-11-24T14:03:28.257Z,97390.00
2022-11-24T14:05:54.809Z,97391.88
2022-11-24T14:08:21.073Z,97395.84
2022-11-24T14:10:47.397Z,97403.00
2022-11-24T14:13:13.929Z,97404.06
2022-11-24T14:15:40.789Z,97399.78
2022-11-24T14:18:08.783Z,97397.13
2022-11-24T14:20:36.656Z,97399.78
2022-11-24T14:23:03.656Z,97394.44
2022-11-24T14:25:30.633Z,97396.06
2022-11-24T14:27:58.239Z,97398.75
2022-11-24T14:30:24.533Z,97406.75
2022-11-24T14:32:50.735Z,97410.44
2022-11-24T14:35:17.260Z,97411.25
2022-11-24T14:37:44.805Z,97409.66
2022-11-24T14:40:11.073Z,97411.53
2022-11-24T14:42:37.375Z,97411.53
2022-11-24T14:45:04.986Z,97408.84
2022-11-24T14:47:32.428Z,97408.03
2022-11-24T14:49:59.133Z,97417.94
2022-11-24T14:52:25.510Z,97417.94
2022-11-24T14:54:51.824Z,97422.44
2022-11-24T14:57:18.070Z,97425.94
2022-11-24T14:59:44.425Z,97424.31
2022-11-24T15:02:10.812Z,97432.31
2022-11-24T15:05:01.606Z,97434.97
2022-11-24T15:07:23.508Z,97432.31
2022-11-24T15:09:50.344Z,97429.91
2022-11-24T15:12:16.645Z,97431.75
2022-11-24T15:14:43.497Z,97437.09
2022-11-24T15:17:09.910Z,97442.69
2022-11-24T15:19:37.316Z,97442.69
2022-11-24T15:22:05.296Z,97444.53
2022-11-24T15:24:32.355Z,97446.41
2022-11-24T15:27:00.524Z,97444.78
2022-11-24T15:29:26.800Z,97446.69
2022-11-24T15:31:53.331Z,97444.00
2022-11-24T15:34:19.708Z,97450.13
2022-11-24T15:36:46.014Z,97444.00
2022-11-24T15:39:12.314Z,97448.53
2022-11-24T15:41:38.808Z,97457.56
2022-11-24T15:44:06.716Z,97455.16
2022-11-24T15:46:34.589Z,97456.22
2022-11-24T15:49:01.325Z,97454.59
2022-11-24T15:51:28.634Z,97457.28
2022-11-24T15:54:00.414Z,97470.88
2022-11-24T15:56:28.688Z,97466.34
2022-11-24T15:58:55.780Z,97475.16
2022-11-24T16:01:22.297Z,97475.16
2022-11-24T16:03:49.374Z,97479.69
2022-11-24T16:06:23.412Z,97481.53
2022-11-24T16:08:53.119Z,97478.09
2022-11-24T16:11:19.511Z,97479.94
2022-11-24T16:13:52.447Z,97486.88
2022-11-24T16:16:20.939Z,97478.88
2022-11-24T16:18:47.406Z,97489.53
2022-11-24T16:21:13.905Z,97483.41
2022-11-24T16:23:42.244Z,97490.59
2022-11-24T16:26:08.552Z,97496.75
2022-11-24T16:28:34.839Z,97479.41
2022-11-24T16:31:01.188Z,97491.72
2022-11-24T16:33:29.638Z,97491.47
2022-11-24T16:35:58.135Z,97497.56
2022-11-24T16:38:24.413Z,97494.69
2022-11-24T16:40:51.445Z,97504.28
2022-11-24T16:43:17.705Z,97505.88
2022-11-24T16:45:45.669Z,97502.16
2022-11-24T16:48:13.472Z,97508.31
2022-11-24T16:50:40.480Z,97490.34
2022-11-24T16:53:06.801Z,97519.78
2022-11-24T16:55:33.090Z,97509.91
2022-11-24T16:57:59.399Z,97513.41
2022-11-24T17:00:27.916Z,97515.25
2022-11-24T17:02:54.774Z,97516.84
2022-11-24T17:05:21.143Z,97517.91
2022-11-24T17:07:47.616Z,97516.84
2022-11-24T17:10:14.250Z,97512.31
2022-11-24T17:12:40.611Z,97520.34
2022-11-24T17:15:31.942Z,97523.00
2022-11-24T17:18:22.415Z,97520.06
2022-11-24T17:20:40.310Z,97529.16
2022-11-24T17:23:07.573Z,97527.28
2022-11-24T17:25:33.908Z,97527.28
2022-11-24T17:28:01.593Z,97530.75
2022-11-24T17:30:27.920Z,97523.81
2022-11-24T17:32:57.005Z,97519.28
2022-11-24T17:35:24.091Z,97524.63
2022-11-24T17:37:50.517Z,97524.63
2022-11-24T17:40:32.129Z,97523.00
2022-11-24T17:42:58.738Z,97526.47
2022-11-24T17:45:26.744Z,97527.28
2022-11-24T17:47:53.619Z,97528.34
2022-11-24T17:50:24.065Z,97537.16
2022-11-24T17:52:53.877Z,97529.97
2022-11-24T17:55:21.083Z,97534.47
2022-11-24T17:57:47.416Z,97539.00
2022-11-24T18:00:13.742Z,97537.41
2022-11-24T18:02:41.899Z,97538.44
2022-11-24T18:05:08.416Z,97540.31
2022-11-24T18:07:34.882Z,97544.59
2022-11-24T18:10:01.198Z,97544.84
2022-11-24T18:12:29.127Z,97545.66
2022-11-24T18:14:56.357Z,97544.84
2022-11-24T18:17:23.300Z,97541.38
2022-11-24T18:19:50.484Z,97546.97
2022-11-24T18:22:16.822Z,97545.34
2022-11-24T18:24:44.997Z,97539.22
2022-11-24T18:27:11.245Z,97541.31
2022-11-24T18:29:37.499Z,97543.16
2022-11-24T18:32:03.862Z,97547.72
2022-11-24T18:34:30.287Z,97548.75
2022-11-24T18:36:56.551Z,97547.41
2022-11-24T18:39:24.265Z,97560.75
2022-11-24T18:41:50.642Z,97554.59
2022-11-24T18:44:16.940Z,97553.78
2022-11-24T18:46:43.291Z,97548.72
2022-11-24T18:49:11.152Z,97547.13
2022-11-24T18:51:39.343Z,97543.63
2022-11-24T18:54:05.822Z,97547.34
2022-11-24T18:56:32.156Z,97545.75
2022-11-24T18:58:59.802Z,97555.59
2022-11-24T19:01:26.189Z,97554.81
2022-11-24T19:03:52.586Z,97555.84
2022-11-24T19:06:19.006Z,97556.91
2022-11-24T19:08:45.270Z,97551.59
2022-11-24T19:11:11.553Z,97557.47
2022-11-24T19:13:40.138Z,97565.47
2022-11-24T19:16:06.534Z,97551.88
2022-11-24T19:18:32.862Z,97561.75
2022-11-24T19:21:01.505Z,97557.22
2022-11-24T19:23:27.798Z,97559.06
2022-11-24T19:25:54.733Z,97553.47
2022-11-24T19:28:22.388Z,97558.81
2022-11-24T19:30:48.897Z,97554.31
2022-11-24T19:33:15.198Z,97552.44
2022-11-24T19:35:42.270Z,97552.19
2022-11-24T19:38:14.714Z,97563.41
2022-11-24T19:40:41.529Z,97559.94
2022-11-24T19:43:08.839Z,97558.09
2022-11-24T19:45:36.081Z,97574.09
2022-11-24T19:48:02.354Z,97572.19
2022-11-24T19:50:30.347Z,97573.03
2022-11-24T19:52:57.443Z,97573.84
2022-11-24T19:55:23.753Z,97576.50
2022-11-24T19:57:51.181Z,97578.34
2022-11-24T20:00:18.476Z,97581.03
2022-11-24T20:02:44.878Z,97574.88
2022-11-24T20:05:11.262Z,97573.28
2022-11-24T20:07:38.859Z,97581.28
2022-11-24T20:10:08.110Z,97576.97
2022-11-24T20:12:35.948Z,97573.53
2022-11-24T20:15:02.163Z,97570.88
2022-11-24T20:17:29.799Z,97577.22
2022-11-24T20:19:56.153Z,97571.91
2022-11-24T20:22:24.001Z,97575.38
2022-11-24T20:24:50.369Z,97577.47
2022-11-24T20:27:16.882Z,97579.34
2022-11-24T20:29:46.911Z,97581.22
2022-11-24T20:32:15.192Z,97584.91
2022-11-24T20:34:41.433Z,97585.19
2022-11-24T20:37:07.723Z,97590.50
2022-11-24T20:39:33.994Z,97587.84
2022-11-24T20:42:02.133Z,97592.13
2022-11-24T20:44:30.730Z,97586.00
2022-11-24T20:46:57.034Z,97584.13
2022-11-24T20:49:24.367Z,97585.19
2022-11-24T20:51:51.148Z,97594.25
2022-11-24T20:54:17.417Z,97592.41
2022-11-24T20:56:43.791Z,97586.25
2022-11-24T20:59:12.319Z,97580.09
2022-11-24T21:01:40.292Z,97575.03
2022-11-24T21:04:06.584Z,97583.84
2022-11-24T21:06:33.979Z,97586.75
2022-11-24T21:09:03.916Z,97592.09
2022-11-24T21:11:30.899Z,97589.41
2022-11-24T21:13:58.231Z,97588.59
2022-11-24T21:16:24.664Z,97587.53
2022-11-24T21:18:51.206Z,97591.03
2022-11-24T21:21:18.354Z,97594.75
2022-11-24T21:23:44.890Z,97595.53
2022-11-24T21:26:16.580Z,97596.59
2022-11-24T21:28:44.383Z,97593.94
2022-11-24T21:31:10.890Z,97601.94
2022-11-24T21:33:37.457Z,97604.84
2022-11-24T21:36:04.155Z,97606.47
2022-11-24T21:38:30.436Z,97609.13
2022-11-24T21:40:56.712Z,97616.09
2022-11-24T21:43:23.296Z,97616.09
2022-11-24T21:45:50.279Z,97608.09
2022-11-24T21:48:16.577Z,97605.41
2022-11-24T21:50:42.930Z,97606.19
2022-11-24T21:53:10.461Z,97606.47
2022-11-24T21:55:36.759Z,97608.31
2022-11-24T21:58:04.278Z,97607.28
2022-11-24T22:00:32.164Z,97609.94
2022-11-24T22:02:58.500Z,97608.88
2022-11-24T22:05:24.842Z,97614.44
2022-11-24T22:07:51.589Z,97609.94
2022-11-24T22:10:19.884Z,97606.47
2022-11-24T22:12:46.468Z,97600.56
2022-11-24T22:15:12.770Z,97608.00
2022-11-24T22:17:39.027Z,97601.56
2022-11-24T22:20:05.417Z,97606.59
2022-11-24T22:22:31.701Z,97602.22
2022-11-24T22:24:57.978Z,97604.47
2022-11-24T22:27:24.275Z,97601.34
2022-11-24T22:29:54.155Z,97598.00
2022-11-24T22:32:20.763Z,97597.25
2022-11-24T22:34:47.112Z,97603.22
2022-11-24T22:37:14.338Z,97602.00
2022-11-24T22:39:40.598Z,97599.78
2022-11-24T22:42:07.005Z,97602.59
2022-11-24T22:44:35.765Z,97603.00
2022-11-24T22:47:04.081Z,97605.25
2022-11-24T22:49:30.393Z,97602.75
2022-11-24T22:51:57.141Z,97609.84
2022-11-24T22:54:23.993Z,97596.69
2022-11-24T22:56:50.380Z,97594.97
2022-11-24T22:59:18.342Z,97599.41
2022-11-24T23:01:44.590Z,97601.97
2022-11-24T23:04:12.290Z,97603.97
2022-11-24T23:06:38.552Z,97611.00
2022-11-24T23:09:05.221Z,97610.13
2022-11-24T23:11:37.392Z,97607.59
2022-11-24T23:14:05.513Z,97606.72
2022-11-24T23:16:32.016Z,97608.22
2022-11-24T23:18:59.299Z,97611.81
2022-11-24T23:21:26.406Z,97609.06
2022-11-24T23:23:53.227Z,97602.81
2022-11-24T23:26:21.236Z,97608.03
2022-11-24T23:28:47.679Z,97605.28
2022-11-24T23:31:14.443Z,97602.53
2022-11-24T23:33:40.740Z,97594.47
2022-11-24T23:36:07.040Z,97603.94
2022-11-24T23:38:33.942Z,97600.13
2022-11-24T23:41:00.567Z,97591.84
2022-11-24T23:43:26.821Z,97588.25
2022-11-24T23:45:53.890Z,97590.81
2022-11-24T23:48:20.244Z,97583.53
2022-11-24T23:50:46.561Z,97578.69
2022-11-24T23:53:12.877Z,97586.56
2022-11-24T23:55:39.646Z,97575.81
2022-11-24T23:58:06.909Z,97577.09
